KAVK

Details ICAO KAVK
Name ALVA RGNL
Region United States
Timezone America/Chicago (UTC-6.0)
Plans Departing 1
Arriving 2
Stats Elevation 1,474 ft / 449 m (AMSL)
Location 36.772079° -98.670421°
Runways 2
Magnetic Variation 4.449° E
Sunrise 2017-12-15 13:41:39 UTC / 2017-12-15 07:41:39 Local
Sunset 2017-12-15 23:21:04 UTC / 2017-12-15 17:21:04 Local
Advertisement - Login to hide

Runways

ID Width Length Bearing (true) Bearing (mag) Surface Threshold Offset Overrun Length
08 170 ft / 52 m 1,868 ft / 570 m 90.00° 85.55° Dirt 0 ft / 0 m 0 ft / 0 m
17 75 ft / 23 m 4,393 ft / 1,339 m 180.14° 175.69° Asphalt 0 ft / 0 m 0 ft / 0 m
26 170 ft / 52 m 1,868 ft / 570 m 270.00° 265.55° Dirt 0 ft / 0 m 0 ft / 0 m
35 75 ft / 23 m 4,393 ft / 1,339 m 0.14° 355.69° Asphalt 145 ft / 44 m 0 ft / 0 m

Map

Weather


0- 5 10 15 20 25 30 35+ Temperature / ° C

Clouds and Precipitation
Forecast for 2017-12-16 00:00 UTC. Updated an hour ago

Ground ~20,000 ft ~40,000 ft Winds

METAR

KAVK 151955Z AUTO 21013G19KT 10SM CLR 12/M06 A3010 RMK AO2

TAF

Not found

Frequencies

Recorded 121.12 MHz AWOS 3
Approach 119.77 MHz VANCE APP/DEP
Unicom 122.80 MHz CTAF/UNICOM
Warning: Do not use this data for real-world aviation or navigation. No guarantee of current accuracy is given.